sensor_id;sensor_type;location;lat;lon;timestamp;pressure;altitude;pressure_sealevel;temperature;humidity
32873;BME280;19224;52.462;16.898;2023-05-03T00:02:03;101186.15;;;9.54;77.61
32873;BME280;19224;52.462;16.898;2023-05-03T00:04:34;101186.66;;;9.52;77.39
32873;BME280;19224;52.462;16.898;2023-05-03T00:07:05;101186.96;;;9.57;77.61
32873;BME280;19224;52.462;16.898;2023-05-03T00:09:36;101191.41;;;9.58;77.88
32873;BME280;19224;52.462;16.898;2023-05-03T00:12:06;101192.98;;;9.49;78.35
32873;BME280;19224;52.462;16.898;2023-05-03T00:14:37;101193.56;;;9.46;79.12
32873;BME280;19224;52.462;16.898;2023-05-03T00:17:07;101193.59;;;9.44;79.71
32873;BME280;19224;52.462;16.898;2023-05-03T00:19:37;101200.17;;;9.66;79.20
32873;BME280;19224;52.462;16.898;2023-05-03T00:22:08;101199.27;;;9.66;78.36
32873;BME280;19224;52.462;16.898;2023-05-03T00:24:38;101200.47;;;9.56;79.44
32873;BME280;19224;52.462;16.898;2023-05-03T00:27:08;101208.59;;;9.53;80.25
32873;BME280;19224;52.462;16.898;2023-05-03T00:29:38;101204.13;;;9.36;82.47
32873;BME280;19224;52.462;16.898;2023-05-03T00:32:09;101208.82;;;9.44;82.90
32873;BME280;19224;52.462;16.898;2023-05-03T00:34:39;101209.08;;;9.35;84.10
32873;BME280;19224;52.462;16.898;2023-05-03T00:37:09;101197.23;;;9.25;83.76
32873;BME280;19224;52.462;16.898;2023-05-03T00:39:40;101198.36;;;9.16;83.44
32873;BME280;19224;52.462;16.898;2023-05-03T00:42:10;101199.84;;;9.10;83.91
32873;BME280;19224;52.462;16.898;2023-05-03T00:44:40;101195.78;;;9.12;83.84
32873;BME280;19224;52.462;16.898;2023-05-03T00:47:11;101196.09;;;9.17;83.47
32873;BME280;19224;52.462;16.898;2023-05-03T00:49:41;101195.39;;;9.09;84.20
32873;BME280;19224;52.462;16.898;2023-05-03T00:52:13;101189.03;;;9.13;84.46
32873;BME280;19224;52.462;16.898;2023-05-03T00:54:44;101191.52;;;9.03;85.52
32873;BME280;19224;52.462;16.898;2023-05-03T00:57:15;101186.40;;;9.10;85.15
32873;BME280;19224;52.462;16.898;2023-05-03T00:59:46;101185.92;;;9.12;85.41
32873;BME280;19224;52.462;16.898;2023-05-03T01:02:17;101185.51;;;9.11;86.82
32873;BME280;19224;52.462;16.898;2023-05-03T01:04:47;101192.08;;;8.98;89.01
32873;BME280;19224;52.462;16.898;2023-05-03T01:07:58;101192.24;;;8.92;92.29
32873;BME280;19224;52.462;16.898;2023-05-03T01:19:04;101199.58;;;8.46;97.85
32873;BME280;19224;52.462;16.898;2023-05-03T01:21:37;101215.73;;;8.23;99.43
32873;BME280;19224;52.462;16.898;2023-05-03T01:24:21;101219.48;;;8.36;98.70
32873;BME280;19224;52.462;16.898;2023-05-03T01:26:51;101210.68;;;8.30;98.40
32873;BME280;19224;52.462;16.898;2023-05-03T01:29:21;101216.25;;;8.19;99.09
32873;BME280;19224;52.462;16.898;2023-05-03T01:32:00;101228.86;;;8.14;99.56
32873;BME280;19224;52.462;16.898;2023-05-03T01:34:53;101225.78;;;8.10;99.98
32873;BME280;19224;52.462;16.898;2023-05-03T01:37:22;101231.29;;;8.04;100.00
32873;BME280;19224;52.462;16.898;2023-05-03T01:40:03;101230.03;;;8.00;100.00
32873;BME280;19224;52.462;16.898;2023-05-03T01:42:30;101231.36;;;8.01;100.00
32873;BME280;19224;52.462;16.898;2023-05-03T01:45:05;101231.54;;;8.14;100.00
32873;BME280;19224;52.462;16.898;2023-05-03T01:47:36;101233.41;;;8.09;100.00
32873;BME280;19224;52.462;16.898;2023-05-03T01:50:10;101235.48;;;7.95;100.00
32873;BME280;19224;52.462;16.898;2023-05-03T01:52:40;101228.92;;;7.89;100.00
32873;BME280;19224;52.462;16.898;2023-05-03T01:55:10;101235.62;;;7.89;100.00
32873;BME280;19224;52.462;16.898;2023-05-03T01:57:41;101229.45;;;8.06;100.00
32873;BME280;19224;52.462;16.898;2023-05-03T02:00:12;101228.67;;;8.01;100.00
32873;BME280;19224;52.462;16.898;2023-05-03T02:02:42;101226.91;;;8.00;100.00
32873;BME280;19224;52.462;16.898;2023-05-03T02:05:13;101224.34;;;7.94;100.00
32873;BME280;19224;52.462;16.898;2023-05-03T02:07:44;101227.19;;;7.85;100.00
32873;BME280;19224;52.462;16.898;2023-05-03T02:10:14;101227.25;;;7.82;100.00
32873;BME280;19224;52.462;16.898;2023-05-03T02:12:45;101225.42;;;7.84;100.00
32873;BME280;19224;52.462;16.898;2023-05-03T02:15:15;101224.50;;;7.85;100.00
32873;BME280;19224;52.462;16.898;2023-05-03T02:17:47;101226.56;;;7.71;100.00
32873;BME280;19224;52.462;16.898;2023-05-03T02:20:19;101224.39;;;7.68;100.00
32873;BME280;19224;52.462;16.898;2023-05-03T02:22:49;101231.38;;;7.76;100.00
32873;BME280;19224;52.462;16.898;2023-05-03T02:25:19;101225.61;;;7.97;100.00
32873;BME280;19224;52.462;16.898;2023-05-03T02:27:50;101229.19;;;7.98;100.00
32873;BME280;19224;52.462;16.898;2023-05-03T02:30:20;101229.45;;;7.83;100.00
32873;BME280;19224;52.462;16.898;2023-05-03T02:32:50;101229.44;;;7.84;100.00
32873;BME280;19224;52.462;16.898;2023-05-03T02:35:21;101228.67;;;8.01;100.00
32873;BME280;19224;52.462;16.898;2023-05-03T02:37:51;101224.41;;;8.13;100.00
32873;BME280;19224;52.462;16.898;2023-05-03T02:40:21;101231.45;;;7.97;100.00
32873;BME280;19224;52.462;16.898;2023-05-03T02:42:52;101232.73;;;7.98;100.00
32873;BME280;19224;52.462;16.898;2023-05-03T02:45:22;101227.84;;;7.98;99.31
32873;BME280;19224;52.462;16.898;2023-05-03T02:47:52;101226.03;;;8.23;97.74
32873;BME280;19224;52.462;16.898;2023-05-03T02:50:24;101229.74;;;8.37;96.36
32873;BME280;19224;52.462;16.898;2023-05-03T02:52:54;101229.65;;;8.41;96.87
32873;BME280;19224;52.462;16.898;2023-05-03T02:55:24;101232.22;;;8.66;96.40
32873;BME280;19224;52.462;16.898;2023-05-03T02:57:54;101228.42;;;8.57;97.55
32873;BME280;19224;52.462;16.898;2023-05-03T03:00:25;101232.72;;;8.45;98.66
32873;BME280;19224;52.462;16.898;2023-05-03T03:02:55;101233.42;;;8.33;99.45
32873;BME280;19224;52.462;16.898;2023-05-03T03:05:25;101236.91;;;8.14;97.80
32873;BME280;19224;52.462;16.898;2023-05-03T03:07:56;101246.61;;;8.21;98.17
32873;BME280;19224;52.462;16.898;2023-05-03T03:10:26;101241.98;;;8.29;99.86
32873;BME280;19224;52.462;16.898;2023-05-03T03:12:56;101243.12;;;8.16;100.00
32873;BME280;19224;52.462;16.898;2023-05-03T03:15:27;101247.88;;;8.02;100.00
32873;BME280;19224;52.462;16.898;2023-05-03T03:17:58;101252.28;;;8.05;100.00
32873;BME280;19224;52.462;16.898;2023-05-03T03:20:29;101245.69;;;8.00;100.00
32873;BME280;19224;52.462;16.898;2023-05-03T03:22:59;101246.72;;;8.15;100.00
32873;BME280;19224;52.462;16.898;2023-05-03T03:25:30;101251.03;;;8.25;100.00
32873;BME280;19224;52.462;16.898;2023-05-03T03:28:02;101252.41;;;7.99;100.00
32873;BME280;19224;52.462;16.898;2023-05-03T03:30:35;101255.19;;;8.16;100.00
32873;BME280;19224;52.462;16.898;2023-05-03T03:33:12;101259.99;;;8.24;100.00
32873;BME280;19224;52.462;16.898;2023-05-03T03:35:38;101255.97;;;8.24;100.00
32873;BME280;19224;52.462;16.898;2023-05-03T03:38:08;101254.88;;;8.09;100.00
32873;BME280;19224;52.462;16.898;2023-05-03T03:40:40;101261.63;;;8.08;100.00
32873;BME280;19224;52.462;16.898;2023-05-03T03:43:11;101265.36;;;8.24;100.00
32873;BME280;19224;52.462;16.898;2023-05-03T03:45:41;101259.00;;;8.28;100.00
32873;BME280;19224;52.462;16.898;2023-05-03T03:48:11;101266.79;;;8.20;100.00
32873;BME280;19224;52.462;16.898;2023-05-03T03:50:41;101268.29;;;8.09;100.00
32873;BME280;19224;52.462;16.898;2023-05-03T03:53:12;101263.73;;;8.14;100.00
32873;BME280;19224;52.462;16.898;2023-05-03T03:55:42;101268.66;;;8.37;100.00
32873;BME280;19224;52.462;16.898;2023-05-03T03:58:14;101276.88;;;8.29;100.00
32873;BME280;19224;52.462;16.898;2023-05-03T04:00:44;101272.91;;;8.28;100.00
32873;BME280;19224;52.462;16.898;2023-05-03T04:03:16;101278.53;;;8.36;100.00
32873;BME280;19224;52.462;16.898;2023-05-03T04:05:50;101279.82;;;8.38;100.00
32873;BME280;19224;52.462;16.898;2023-05-03T04:08:21;101281.14;;;8.39;100.00
32873;BME280;19224;52.462;16.898;2023-05-03T04:10:51;101280.23;;;8.40;100.00
32873;BME280;19224;52.462;16.898;2023-05-03T04:13:21;101287.39;;;8.16;100.00
32873;BME280;19224;52.462;16.898;2023-05-03T04:15:54;101293.89;;;8.28;100.00
32873;BME280;19224;52.462;16.898;2023-05-03T04:18:25;101302.93;;;8.24;100.00
32873;BME280;19224;52.462;16.898;2023-05-03T04:20:55;101298.77;;;8.30;100.00
32873;BME280;19224;52.462;16.898;2023-05-03T04:23:30;101311.23;;;8.34;100.00
32873;BME280;19224;52.462;16.898;2023-05-03T04:25:59;101306.81;;;8.30;100.00
32873;BME280;19224;52.462;16.898;2023-05-03T04:28:32;101317.73;;;8.43;100.00
32873;BME280;19224;52.462;16.898;2023-05-03T04:31:02;101320.08;;;8.60;100.00
32873;BME280;19224;52.462;16.898;2023-05-03T04:33:43;101314.09;;;8.69;100.00
32873;BME280;19224;52.462;16.898;2023-05-03T04:36:09;101319.45;;;8.69;100.00
32873;BME280;19224;52.462;16.898;2023-05-03T04:38:42;101327.03;;;8.70;100.00
32873;BME280;19224;52.462;16.898;2023-05-03T04:41:14;101325.77;;;8.87;100.00
32873;BME280;19224;52.462;16.898;2023-05-03T04:43:45;101321.73;;;8.87;100.00
32873;BME280;19224;52.462;16.898;2023-05-03T04:46:15;101324.84;;;8.88;100.00
32873;BME280;19224;52.462;16.898;2023-05-03T04:48:46;101329.13;;;8.76;100.00
32873;BME280;19224;52.462;16.898;2023-05-03T04:51:17;101327.06;;;8.90;100.00
32873;BME280;19224;52.462;16.898;2023-05-03T04:53:47;101333.23;;;8.73;100.00
32873;BME280;19224;52.462;16.898;2023-05-03T04:56:18;101334.81;;;8.83;100.00
32873;BME280;19224;52.462;16.898;2023-05-03T04:58:53;101343.24;;;8.65;100.00
32873;BME280;19224;52.462;16.898;2023-05-03T05:01:24;101346.22;;;8.74;100.00
32873;BME280;19224;52.462;16.898;2023-05-03T05:03:56;101343.11;;;8.93;100.00
32873;BME280;19224;52.462;16.898;2023-05-03T05:06:29;101337.81;;;9.09;100.00
32873;BME280;19224;52.462;16.898;2023-05-03T05:08:59;101346.61;;;9.16;100.00
32873;BME280;19224;52.462;16.898;2023-05-03T05:11:33;101349.42;;;9.30;100.00
32873;BME280;19224;52.462;16.898;2023-05-03T05:14:03;101347.30;;;9.06;100.00
32873;BME280;19224;52.462;16.898;2023-05-03T05:16:34;101347.19;;;9.11;100.00
32873;BME280;19224;52.462;16.898;2023-05-03T05:19:04;101340.03;;;9.11;100.00
32873;BME280;19224;52.462;16.898;2023-05-03T05:21:35;101356.92;;;9.16;100.00
32873;BME280;19224;52.462;16.898;2023-05-03T05:24:06;101362.80;;;9.14;100.00
32873;BME280;19224;52.462;16.898;2023-05-03T05:26:41;101361.07;;;9.10;100.00
32873;BME280;19224;52.462;16.898;2023-05-03T05:29:17;101367.09;;;9.21;100.00
32873;BME280;19224;52.462;16.898;2023-05-03T05:31:55;101371.31;;;9.34;100.00
32873;BME280;19224;52.462;16.898;2023-05-03T05:34:31;101369.69;;;9.26;100.00
32873;BME280;19224;52.462;16.898;2023-05-03T05:37:02;101379.02;;;9.49;100.00
32873;BME280;19224;52.462;16.898;2023-05-03T05:39:35;101376.41;;;9.46;100.00
32873;BME280;19224;52.462;16.898;2023-05-03T05:42:06;101377.97;;;9.56;100.00
32873;BME280;19224;52.462;16.898;2023-05-03T05:44:36;101381.63;;;9.52;100.00
32873;BME280;19224;52.462;16.898;2023-05-03T05:47:07;101383.43;;;9.33;100.00
32873;BME280;19224;52.462;16.898;2023-05-03T05:49:38;101379.94;;;9.48;100.00
32873;BME280;19224;52.462;16.898;2023-05-03T05:52:09;101380.91;;;9.44;100.00
32873;BME280;19224;52.462;16.898;2023-05-03T05:54:42;101385.42;;;9.43;99.69
32873;BME280;19224;52.462;16.898;2023-05-03T05:57:12;101385.94;;;9.40;99.78
32873;BME280;19224;52.462;16.898;2023-05-03T05:59:43;101385.52;;;9.39;98.68
32873;BME280;19224;52.462;16.898;2023-05-03T06:02:16;101394.36;;;9.25;99.40
32873;BME280;19224;52.462;16.898;2023-05-03T06:04:49;101391.94;;;9.32;99.94
32873;BME280;19224;52.462;16.898;2023-05-03T06:07:19;101396.25;;;9.41;99.62
32873;BME280;19224;52.462;16.898;2023-05-03T06:09:51;101398.23;;;9.31;98.61
32873;BME280;19224;52.462;16.898;2023-05-03T06:12:21;101400.19;;;9.45;99.43
32873;BME280;19224;52.462;16.898;2023-05-03T06:14:51;101407.30;;;9.65;98.85
32873;BME280;19224;52.462;16.898;2023-05-03T06:17:23;101402.95;;;9.59;95.88
32873;BME280;19224;52.462;16.898;2023-05-03T06:19:54;101407.52;;;9.75;94.91
32873;BME280;19224;52.462;16.898;2023-05-03T06:22:25;101406.86;;;9.65;94.23
32873;BME280;19224;52.462;16.898;2023-05-03T06:24:56;101409.58;;;9.83;93.78
32873;BME280;19224;52.462;16.898;2023-05-03T06:27:26;101412.97;;;9.91;92.82
32873;BME280;19224;52.462;16.898;2023-05-03T06:30:00;101411.75;;;10.05;90.76
32873;BME280;19224;52.462;16.898;2023-05-03T06:32:32;101414.30;;;10.10;90.73
32873;BME280;19224;52.462;16.898;2023-05-03T06:35:02;101411.61;;;10.10;91.70
32873;BME280;19224;52.462;16.898;2023-05-03T06:37:32;101412.17;;;10.24;91.35
32873;BME280;19224;52.462;16.898;2023-05-03T06:40:02;101413.63;;;10.02;91.56
32873;BME280;19224;52.462;16.898;2023-05-03T06:42:34;101415.00;;;10.18;92.65
32873;BME280;19224;52.462;16.898;2023-05-03T06:45:06;101414.59;;;10.33;91.21
32873;BME280;19224;52.462;16.898;2023-05-03T06:47:36;101411.67;;;10.42;91.05
32873;BME280;19224;52.462;16.898;2023-05-03T06:50:29;101412.36;;;10.50;89.41
32873;BME280;19224;52.462;16.898;2023-05-03T06:52:59;101414.55;;;10.52;89.18
32873;BME280;19224;52.462;16.898;2023-05-03T06:55:29;101410.74;;;10.43;88.31
32873;BME280;19224;52.462;16.898;2023-05-03T06:58:03;101415.80;;;10.55;88.06
32873;BME280;19224;52.462;16.898;2023-05-03T07:00:39;101411.61;;;10.61;88.51
32873;BME280;19224;52.462;16.898;2023-05-03T07:03:10;101401.01;;;10.71;85.26
32873;BME280;19224;52.462;16.898;2023-05-03T07:05:43;101418.10;;;10.70;86.81
32873;BME280;19224;52.462;16.898;2023-05-03T07:08:14;101420.11;;;10.62;86.89
32873;BME280;19224;52.462;16.898;2023-05-03T07:10:45;101422.69;;;10.50;86.03
32873;BME280;19224;52.462;16.898;2023-05-03T07:13:16;101418.82;;;10.43;87.83
32873;BME280;19224;52.462;16.898;2023-05-03T07:15:46;101421.16;;;10.40;86.89
32873;BME280;19224;52.462;16.898;2023-05-03T07:18:17;101429.27;;;10.39;86.88
32873;BME280;19224;52.462;16.898;2023-05-03T07:20:50;101422.20;;;10.51;86.35
32873;BME280;19224;52.462;16.898;2023-05-03T07:23:19;101421.79;;;10.50;87.17
32873;BME280;19224;52.462;16.898;2023-05-03T07:25:49;101423.48;;;10.70;84.10
32873;BME280;19224;52.462;16.898;2023-05-03T07:28:21;101418.52;;;10.71;79.59
32873;BME280;19224;52.462;16.898;2023-05-03T07:30:52;101422.89;;;10.75;76.53
32873;BME280;19224;52.462;16.898;2023-05-03T07:36:15;101427.81;;;10.91;73.87
32873;BME280;19224;52.462;16.898;2023-05-03T07:38:45;101425.41;;;10.97;72.46
32873;BME280;19224;52.462;16.898;2023-05-03T07:41:16;101423.55;;;10.99;71.19
32873;BME280;19224;52.462;16.898;2023-05-03T07:43:48;101421.27;;;11.16;71.15
32873;BME280;19224;52.462;16.898;2023-05-03T07:46:18;101424.69;;;11.21;72.07
32873;BME280;19224;52.462;16.898;2023-05-03T07:48:49;101425.50;;;11.39;72.33
32873;BME280;19224;52.462;16.898;2023-05-03T07:51:19;101427.94;;;11.48;67.74
32873;BME280;19224;52.462;16.898;2023-05-03T07:53:50;101430.73;;;11.45;66.58
32873;BME280;19224;52.462;16.898;2023-05-03T07:56:21;101424.70;;;11.35;63.92
32873;BME280;19224;52.462;16.898;2023-05-03T07:58:51;101433.59;;;11.39;59.97
32873;BME280;19224;52.462;16.898;2023-05-03T08:01:22;101430.53;;;11.51;59.15
32873;BME280;19224;52.462;16.898;2023-05-03T08:03:53;101432.36;;;11.65;59.40
32873;BME280;19224;52.462;16.898;2023-05-03T08:06:24;101426.95;;;11.79;51.85
32873;BME280;19224;52.462;16.898;2023-05-03T08:08:55;101419.67;;;11.95;46.53
32873;BME280;19224;52.462;16.898;2023-05-03T08:11:26;101425.30;;;12.02;48.51
32873;BME280;19224;52.462;16.898;2023-05-03T08:13:59;101426.63;;;11.90;46.01
32873;BME280;19224;52.462;16.898;2023-05-03T08:16:30;101419.79;;;12.05;47.89
32873;BME280;19224;52.462;16.898;2023-05-03T08:19:00;101428.00;;;12.15;52.71
32873;BME280;19224;52.462;16.898;2023-05-03T08:21:30;101431.84;;;12.21;52.52
32873;BME280;19224;52.462;16.898;2023-05-03T08:24:01;101427.92;;;12.44;53.42
32873;BME280;19224;52.462;16.898;2023-05-03T08:26:33;101424.23;;;12.71;51.93
32873;BME280;19224;52.462;16.898;2023-05-03T08:29:04;101426.83;;;12.74;52.59
32873;BME280;19224;52.462;16.898;2023-05-03T08:31:35;101436.94;;;12.69;52.96
32873;BME280;19224;52.462;16.898;2023-05-03T08:34:06;101421.66;;;12.42;54.36
32873;BME280;19224;52.462;16.898;2023-05-03T08:36:38;101423.73;;;12.21;54.14
32873;BME280;19224;52.462;16.898;2023-05-03T08:39:09;101427.47;;;12.43;54.22
32873;BME280;19224;52.462;16.898;2023-05-03T08:41:40;101428.62;;;12.49;54.52
32873;BME280;19224;52.462;16.898;2023-05-03T08:44:19;101426.95;;;12.19;54.87
32873;BME280;19224;52.462;16.898;2023-05-03T08:46:49;101430.51;;;12.47;52.84
32873;BME280;19224;52.462;16.898;2023-05-03T08:49:20;101432.78;;;12.59;51.27
32873;BME280;19224;52.462;16.898;2023-05-03T08:51:51;101429.61;;;12.73;56.22
32873;BME280;19224;52.462;16.898;2023-05-03T08:54:24;101428.34;;;13.07;53.84
32873;BME280;19224;52.462;16.898;2023-05-03T08:56:54;101429.09;;;13.35;49.06
32873;BME280;19224;52.462;16.898;2023-05-03T08:59:28;101436.07;;;13.29;47.20
32873;BME280;19224;52.462;16.898;2023-05-03T09:01:58;101425.38;;;13.26;46.48
32873;BME280;19224;52.462;16.898;2023-05-03T09:04:33;101424.91;;;13.38;46.67
32873;BME280;19224;52.462;16.898;2023-05-03T09:07:13;101426.55;;;13.42;45.39
32873;BME280;19224;52.462;16.898;2023-05-03T09:09:49;101431.80;;;13.35;46.42
32873;BME280;19224;52.462;16.898;2023-05-03T09:12:34;101427.66;;;13.37;46.28
32873;BME280;19224;52.462;16.898;2023-05-03T09:15:05;101428.36;;;13.30;46.10
32873;BME280;19224;52.462;16.898;2023-05-03T09:17:36;101433.71;;;13.09;46.18
32873;BME280;19224;52.462;16.898;2023-05-03T09:20:08;101426.41;;;13.11;46.99
32873;BME280;19224;52.462;16.898;2023-05-03T09:22:49;101430.66;;;13.29;45.91
32873;BME280;19224;52.462;16.898;2023-05-03T09:25:15;101428.84;;;13.41;45.67
32873;BME280;19224;52.462;16.898;2023-05-03T09:27:58;101423.83;;;13.65;45.37
32873;BME280;19224;52.462;16.898;2023-05-03T09:30:22;101429.11;;;13.91;44.44
32873;BME280;19224;52.462;16.898;2023-05-03T09:32:52;101420.08;;;14.02;43.60
32873;BME280;19224;52.462;16.898;2023-05-03T09:35:22;101423.80;;;14.43;43.37
32873;BME280;19224;52.462;16.898;2023-05-03T09:37:53;101416.72;;;14.80;41.64
32873;BME280;19224;52.462;16.898;2023-05-03T09:43:09;101427.98;;;14.49;42.50
32873;BME280;19224;52.462;16.898;2023-05-03T09:45:51;101421.88;;;14.13;42.68
32873;BME280;19224;52.462;16.898;2023-05-03T09:48:20;101418.55;;;13.95;42.06
32873;BME280;19224;52.462;16.898;2023-05-03T09:50:52;101422.97;;;13.42;43.81
32873;BME280;19224;52.462;16.898;2023-05-03T09:53:23;101426.13;;;13.41;43.48
32873;BME280;19224;52.462;16.898;2023-05-03T09:55:57;101421.95;;;13.56;43.37
32873;BME280;19224;52.462;16.898;2023-05-03T09:58:29;101422.88;;;13.89;43.21
32873;BME280;19224;52.462;16.898;2023-05-03T10:01:03;101421.46;;;14.12;42.43
32873;BME280;19224;52.462;16.898;2023-05-03T10:03:45;101419.22;;;14.23;41.81
32873;BME280;19224;52.462;16.898;2023-05-03T10:06:35;101417.27;;;14.78;41.22
32873;BME280;19224;52.462;16.898;2023-05-03T10:12:09;101420.17;;;13.99;44.40
32873;BME280;19224;52.462;16.898;2023-05-03T10:14:48;101417.11;;;13.75;45.16
32873;BME280;19224;52.462;16.898;2023-05-03T10:17:27;101406.72;;;13.86;45.22
32873;BME280;19224;52.462;16.898;2023-05-03T10:20:23;101419.55;;;13.48;45.69
32873;BME280;19224;52.462;16.898;2023-05-03T10:23:10;101409.06;;;13.74;47.29
32873;BME280;19224;52.462;16.898;2023-05-03T10:28:39;101413.17;;;13.94;46.00
32873;BME280;19224;52.462;16.898;2023-05-03T10:31:45;101413.35;;;13.79;45.83
32873;BME280;19224;52.462;16.898;2023-05-03T10:34:33;101410.42;;;13.95;46.44
32873;BME280;19224;52.462;16.898;2023-05-03T10:37:11;101406.11;;;14.34;43.91
32873;BME280;19224;52.462;16.898;2023-05-03T10:39:45;101402.88;;;14.56;42.75
32873;BME280;19224;52.462;16.898;2023-05-03T10:42:20;101410.45;;;14.48;43.85
32873;BME280;19224;52.462;16.898;2023-05-03T10:44:52;101400.40;;;15.10;42.01
32873;BME280;19224;52.462;16.898;2023-05-03T10:47:24;101395.44;;;15.29;41.18
32873;BME280;19224;52.462;16.898;2023-05-03T10:52:49;101405.77;;;14.42;42.54
32873;BME280;19224;52.462;16.898;2023-05-03T10:55:22;101407.98;;;14.22;45.58
32873;BME280;19224;52.462;16.898;2023-05-03T10:57:58;101396.62;;;14.54;45.75
32873;BME280;19224;52.462;16.898;2023-05-03T11:00:42;101400.05;;;14.79;44.91
32873;BME280;19224;52.462;16.898;2023-05-03T11:03:33;101406.94;;;14.76;43.79
32873;BME280;19224;52.462;16.898;2023-05-03T11:06:04;101401.51;;;14.76;41.69
32873;BME280;19224;52.462;16.898;2023-05-03T11:08:34;101397.77;;;15.18;40.97
32873;BME280;19224;52.462;16.898;2023-05-03T11:11:07;101394.13;;;15.66;40.90
32873;BME280;19224;52.462;16.898;2023-05-03T11:13:38;101403.45;;;15.88;40.78
32873;BME280;19224;52.462;16.898;2023-05-03T11:16:08;101392.16;;;15.03;42.07
32873;BME280;19224;52.462;16.898;2023-05-03T11:18:39;101393.34;;;15.16;42.99
32873;BME280;19224;52.462;16.898;2023-05-03T11:21:11;101397.73;;;15.00;43.75
32873;BME280;19224;52.462;16.898;2023-05-03T11:23:43;101393.50;;;15.13;43.69
32873;BME280;19224;52.462;16.898;2023-05-03T11:26:13;101406.13;;;15.04;44.58
32873;BME280;19224;52.462;16.898;2023-05-03T11:28:45;101399.48;;;14.61;45.16
32873;BME280;19224;52.462;16.898;2023-05-03T11:31:15;101403.21;;;14.78;43.92
32873;BME280;19224;52.462;16.898;2023-05-03T11:33:45;101415.33;;;14.50;43.98
32873;BME280;19224;52.462;16.898;2023-05-03T11:36:16;101417.08;;;14.41;43.70
32873;BME280;19224;52.462;16.898;2023-05-03T11:38:46;101408.87;;;14.33;44.24
32873;BME280;19224;52.462;16.898;2023-05-03T11:41:17;101402.97;;;14.43;43.95
32873;BME280;19224;52.462;16.898;2023-05-03T11:43:49;101400.78;;;14.62;42.84
32873;BME280;19224;52.462;16.898;2023-05-03T11:46:28;101400.59;;;15.15;42.40
32873;BME280;19224;52.462;16.898;2023-05-03T11:49:00;101399.31;;;15.24;44.75
32873;BME280;19224;52.462;16.898;2023-05-03T11:51:31;101405.20;;;15.62;43.71
32873;BME280;19224;52.462;16.898;2023-05-03T11:54:06;101397.20;;;15.40;43.47
32873;BME280;19224;52.462;16.898;2023-05-03T11:56:37;101396.03;;;15.46;43.94
32873;BME280;19224;52.462;16.898;2023-05-03T11:59:07;101399.52;;;15.76;43.03
32873;BME280;19224;52.462;16.898;2023-05-03T12:01:37;101407.95;;;16.16;40.53
32873;BME280;19224;52.462;16.898;2023-05-03T12:04:11;101402.86;;;16.27;39.74
32873;BME280;19224;52.462;16.898;2023-05-03T12:06:42;101404.27;;;16.44;39.42
32873;BME280;19224;52.462;16.898;2023-05-03T12:09:14;101404.98;;;16.39;39.95
32873;BME280;19224;52.462;16.898;2023-05-03T12:11:44;101405.16;;;16.36;39.78
32873;BME280;19224;52.462;16.898;2023-05-03T12:14:16;101399.64;;;16.27;40.44
32873;BME280;19224;52.462;16.898;2023-05-03T12:16:50;101403.48;;;16.15;39.78
32873;BME280;19224;52.462;16.898;2023-05-03T12:19:28;101409.09;;;15.75;40.31
32873;BME280;19224;52.462;16.898;2023-05-03T12:21:58;101401.19;;;15.42;40.42
32873;BME280;19224;52.462;16.898;2023-05-03T12:24:29;101397.02;;;15.35;40.61
32873;BME280;19224;52.462;16.898;2023-05-03T12:26:59;101396.72;;;15.41;41.35
32873;BME280;19224;52.462;16.898;2023-05-03T12:29:29;101390.83;;;15.87;41.17
32873;BME280;19224;52.462;16.898;2023-05-03T12:32:00;101388.83;;;15.82;40.77
32873;BME280;19224;52.462;16.898;2023-05-03T12:34:31;101389.55;;;16.12;39.92
32873;BME280;19224;52.462;16.898;2023-05-03T12:37:03;101389.43;;;16.24;39.10
32873;BME280;19224;52.462;16.898;2023-05-03T12:39:33;101395.44;;;16.03;38.57
32873;BME280;19224;52.462;16.898;2023-05-03T12:42:04;101397.45;;;16.00;38.81
32873;BME280;19224;52.462;16.898;2023-05-03T12:44:37;101392.22;;;16.31;38.04
32873;BME280;19224;52.462;16.898;2023-05-03T12:47:08;101398.98;;;16.41;37.85
32873;BME280;19224;52.462;16.898;2023-05-03T12:49:39;101385.31;;;16.15;37.78
32873;BME280;19224;52.462;16.898;2023-05-03T12:52:09;101387.27;;;15.95;39.09
32873;BME280;19224;52.462;16.898;2023-05-03T12:54:40;101396.36;;;16.21;38.15
32873;BME280;19224;52.462;16.898;2023-05-03T12:57:10;101385.34;;;16.68;36.08
32873;BME280;19224;52.462;16.898;2023-05-03T12:59:41;101382.50;;;16.94;36.77
32873;BME280;19224;52.462;16.898;2023-05-03T13:02:12;101380.51;;;16.81;35.98
32873;BME280;19224;52.462;16.898;2023-05-03T13:04:43;101379.16;;;16.73;35.81
32873;BME280;19224;52.462;16.898;2023-05-03T13:07:14;101372.53;;;17.10;35.83
32873;BME280;19224;52.462;16.898;2023-05-03T13:09:45;101387.42;;;17.37;35.37
32873;BME280;19224;52.462;16.898;2023-05-03T13:12:15;101375.63;;;17.45;34.72
32873;BME280;19224;52.462;16.898;2023-05-03T13:14:49;101370.84;;;17.57;35.00
32873;BME280;19224;52.462;16.898;2023-05-03T13:17:20;101374.14;;;17.55;35.28
32873;BME280;19224;52.462;16.898;2023-05-03T13:19:53;101374.20;;;16.81;37.54
32873;BME280;19224;52.462;16.898;2023-05-03T13:22:23;101374.56;;;16.98;37.06
32873;BME280;19224;52.462;16.898;2023-05-03T13:24:53;101369.81;;;17.19;37.28
32873;BME280;19224;52.462;16.898;2023-05-03T13:27:24;101372.39;;;17.13;37.36
32873;BME280;19224;52.462;16.898;2023-05-03T13:29:55;101367.22;;;17.00;37.29
32873;BME280;19224;52.462;16.898;2023-05-03T13:32:25;101373.89;;;16.70;37.60